createdAt,value
2019-01-21T00:03:21.910Z,101695.72
2019-01-21T00:08:30.652Z,101698.21
2019-01-21T00:13:38.294Z,101695.73
2019-01-21T00:18:46.087Z,101689.58
2019-01-21T00:23:54.102Z,101697.93
2019-01-21T00:29:02.327Z,101690.95
2019-01-21T00:34:10.124Z,101686.34
2019-01-21T00:39:16.282Z,101688.33
2019-01-21T00:44:23.288Z,101692.01
2019-01-21T00:49:30.667Z,101696.52
2019-01-21T00:54:37.554Z,101694.84
2019-01-21T00:59:43.916Z,101696.30
2019-01-21T01:04:51.660Z,101698.28
2019-01-21T01:09:58.672Z,101698.34
2019-01-21T01:15:07.022Z,101708.97
2019-01-21T01:20:16.594Z,101703.62
2019-01-21T01:25:24.778Z,101706.23
2019-01-21T01:30:34.136Z,101708.81
2019-01-21T01:35:42.152Z,101709.70
2019-01-21T01:40:48.798Z,101697.86
2019-01-21T01:45:56.454Z,101696.91
2019-01-21T01:51:03.643Z,101698.33
2019-01-21T01:56:13.996Z,101701.00
2019-01-21T02:01:24.136Z,101702.17
2019-01-21T02:06:30.181Z,101699.81
2019-01-21T02:11:36.975Z,101704.52
2019-01-21T02:16:45.531Z,101711.66
2019-01-21T02:21:55.651Z,101708.39
2019-01-21T02:27:06.798Z,101715.50
2019-01-21T02:32:34.261Z,101711.02
2019-01-21T02:38:09.977Z,101707.44
2019-01-21T02:43:27.046Z,101694.16
2019-01-21T02:48:48.932Z,101689.88
2019-01-21T02:54:11.729Z,101698.12
2019-01-21T02:59:24.347Z,101696.12
2019-01-21T03:04:51.667Z,101690.73
2019-01-21T03:10:11.859Z,101691.45
2019-01-21T03:15:22.845Z,101686.54
2019-01-21T03:20:38.918Z,101681.78
2019-01-21T03:26:13.552Z,101697.94
2019-01-21T03:31:34.720Z,101695.77
2019-01-21T03:37:03.012Z,101692.06
2019-01-21T03:42:17.972Z,101691.34
2019-01-21T03:47:34.559Z,101690.36
2019-01-21T03:53:01.314Z,101681.98
2019-01-21T03:58:19.838Z,101688.27
2019-01-21T04:03:47.892Z,101685.80
2019-01-21T04:08:57.748Z,101689.11
2019-01-21T04:14:13.750Z,101675.14
2019-01-21T04:19:39.216Z,101668.66
2019-01-21T04:25:00.888Z,101665.77
2019-01-21T04:30:19.456Z,101665.58
2019-01-21T04:35:50.224Z,101671.92
2019-01-21T04:41:06.296Z,101664.71
2019-01-21T04:46:33.923Z,101665.14
2019-01-21T04:51:52.079Z,101662.05
2019-01-21T04:57:22.707Z,101652.33
2019-01-21T05:02:55.948Z,101652.33
2019-01-21T05:08:22.489Z,101640.52
2019-01-21T05:14:06.397Z,101649.70
2019-01-21T05:19:28.431Z,101648.19
2019-01-21T05:24:51.529Z,101652.30
2019-01-21T05:30:10.220Z,101646.33
2019-01-21T05:35:55.341Z,101645.52
2019-01-21T05:41:12.034Z,101648.56
2019-01-21T05:46:43.754Z,101652.53
2019-01-21T05:52:14.856Z,101647.14
2019-01-21T05:57:44.109Z,101647.86
2019-01-21T06:03:23.124Z,101651.52
2019-01-21T06:08:48.158Z,101643.63
2019-01-21T06:14:00.363Z,101642.99
2019-01-21T06:19:10.805Z,101651.48
2019-01-21T06:24:43.266Z,101649.67
2019-01-21T06:29:58.814Z,101658.70
2019-01-21T06:35:26.201Z,101661.56
2019-01-21T06:40:50.064Z,101652.50
2019-01-21T06:46:24.206Z,101661.63
2019-01-21T06:51:41.220Z,101657.27
2019-01-21T06:57:08.571Z,101661.63
2019-01-21T07:02:19.643Z,101664.49
2019-01-21T07:07:41.372Z,101664.83
2019-01-21T07:13:07.794Z,101665.21
2019-01-21T07:18:26.092Z,101665.41
2019-01-21T07:23:44.399Z,101663.05
2019-01-21T07:34:29.057Z,101665.84
2019-01-21T07:39:44.340Z,101672.82
2019-01-21T07:45:17.867Z,101668.43
2019-01-21T07:50:38.673Z,101670.61
2019-01-21T07:56:09.365Z,101678.52
2019-01-21T08:01:38.069Z,101673.36
2019-01-21T08:07:26.478Z,101676.66
2019-01-21T08:12:44.562Z,101681.63
2019-01-21T08:17:59.062Z,101669.19
2019-01-21T08:23:13.670Z,101677.52
2019-01-21T08:28:48.468Z,101669.91
2019-01-21T08:34:04.807Z,101665.69
2019-01-21T08:39:53.667Z,101675.11
2019-01-21T08:45:31.396Z,101675.42
2019-01-21T08:50:44.169Z,101677.48
2019-01-21T08:56:03.558Z,101678.02
2019-01-21T09:01:46.237Z,101677.58
2019-01-21T09:07:04.752Z,101681.72
2019-01-21T09:12:34.480Z,101685.30
2019-01-21T09:17:50.696Z,101683.44
2019-01-21T09:23:22.825Z,101687.67
2019-01-21T09:28:49.396Z,101698.89
2019-01-21T09:34:06.682Z,101685.30
2019-01-21T09:39:20.078Z,101696.59
2019-01-21T09:44:42.321Z,101693.63
2019-01-21T09:49:53.529Z,101691.50
2019-01-21T09:55:03.774Z,101683.98
2019-01-21T10:00:19.028Z,101695.02
2019-01-21T10:05:34.887Z,101696.45
2019-01-21T10:11:03.572Z,101683.35
2019-01-21T10:16:16.121Z,101669.08
2019-01-21T10:21:52.347Z,101662.26
2019-01-21T10:27:15.770Z,101658.61
2019-01-21T10:32:33.408Z,101649.40
2019-01-21T10:38:14.951Z,101642.78
2019-01-21T10:43:37.287Z,101630.94
2019-01-21T10:48:59.599Z,101617.34
2019-01-21T10:54:23.933Z,101605.52
2019-01-21T10:59:44.549Z,101598.17
2019-01-21T11:04:56.539Z,101590.23
2019-01-21T11:10:22.000Z,101594.00
2019-01-21T11:15:34.027Z,101584.03
2019-01-21T11:21:04.026Z,101586.63
2019-01-21T11:26:30.005Z,101566.97
2019-01-21T11:31:58.043Z,101559.17
2019-01-21T11:37:09.549Z,101556.67
2019-01-21T11:42:24.802Z,101553.94
2019-01-21T11:47:59.413Z,101555.99
2019-01-21T11:53:17.722Z,101563.35
2019-01-21T11:58:42.003Z,101549.45
2019-01-21T12:03:57.886Z,101537.30
2019-01-21T12:09:11.184Z,101519.66
2019-01-21T12:14:51.526Z,101521.48
2019-01-21T12:20:17.483Z,101531.29
2019-01-21T12:25:27.665Z,101528.25
2019-01-21T12:30:45.640Z,101525.09
2019-01-21T12:36:01.831Z,101525.77
2019-01-21T12:41:47.874Z,101523.52
2019-01-21T12:47:17.067Z,101519.00
2019-01-21T12:52:35.217Z,101513.20
2019-01-21T12:58:01.465Z,101493.19
2019-01-21T13:03:29.938Z,101485.77
2019-01-21T13:08:44.631Z,101473.25
2019-01-21T13:14:09.862Z,101464.55
2019-01-21T13:19:26.502Z,101455.89
2019-01-21T13:24:39.104Z,101445.38
2019-01-21T13:29:48.091Z,101448.45
2019-01-21T13:35:19.894Z,101448.65
2019-01-21T13:40:52.149Z,101441.92
2019-01-21T13:46:31.859Z,101427.81
2019-01-21T13:52:06.606Z,101414.69
2019-01-21T13:57:35.576Z,101406.83
2019-01-21T14:02:48.968Z,101403.61
2019-01-21T14:08:06.870Z,101407.31
2019-01-21T14:13:16.945Z,101403.30
2019-01-21T14:18:33.213Z,101394.55
2019-01-21T14:23:48.530Z,101394.45
2019-01-21T14:29:16.033Z,101379.20
2019-01-21T14:34:34.008Z,101369.29
2019-01-21T14:39:44.640Z,101362.05
2019-01-21T14:45:19.340Z,101343.72
2019-01-21T14:50:51.420Z,101351.70
2019-01-21T14:56:17.232Z,101356.61
2019-01-21T15:01:40.703Z,101341.90
2019-01-21T15:07:00.881Z,101342.73
2019-01-21T15:12:31.417Z,101339.43
2019-01-21T15:18:04.061Z,101333.76
2019-01-21T15:23:32.282Z,101329.96
2019-01-21T15:28:47.644Z,101317.09
2019-01-21T15:34:06.323Z,101328.64
2019-01-21T15:39:19.970Z,101336.29
2019-01-21T15:44:38.342Z,101345.81
2019-01-21T15:49:50.230Z,101352.78
2019-01-21T15:55:04.456Z,101349.95
2019-01-21T16:00:23.900Z,101346.59
2019-01-21T16:05:32.615Z,101346.05
2019-01-21T16:11:03.976Z,101363.27
2019-01-21T16:16:20.188Z,101358.54
2019-01-21T16:21:58.407Z,101358.69
2019-01-21T16:27:27.624Z,101350.77
2019-01-21T16:32:35.035Z,101335.34
2019-01-21T16:37:49.933Z,101317.53
2019-01-21T16:42:56.523Z,101304.52
2019-01-21T16:48:07.939Z,101289.42
2019-01-21T16:53:15.884Z,101277.89
2019-01-21T16:58:21.981Z,101277.94
2019-01-21T17:03:29.729Z,101286.45
2019-01-21T17:08:38.352Z,101284.94
2019-01-21T17:13:45.750Z,101283.80
2019-01-21T17:18:53.542Z,101281.20
2019-01-21T17:23:59.441Z,101297.83
2019-01-21T17:29:06.102Z,101315.91
2019-01-21T17:34:12.040Z,101308.23
2019-01-21T17:39:20.679Z,101296.59
2019-01-21T17:44:26.903Z,101291.44
2019-01-21T17:49:33.488Z,101288.29
2019-01-21T17:54:41.934Z,101283.83
2019-01-21T17:59:47.687Z,101284.97
2019-01-21T18:04:53.318Z,101285.95
2019-01-21T18:09:59.531Z,101284.09
2019-01-21T18:15:09.502Z,101283.03
2019-01-21T18:20:21.089Z,101287.72
2019-01-21T18:25:30.628Z,101277.27
2019-01-21T18:30:38.673Z,101272.39
2019-01-21T18:35:46.829Z,101266.17
2019-01-21T18:40:53.470Z,101255.48
2019-01-21T18:46:00.356Z,101253.31
2019-01-21T18:51:06.454Z,101246.88
2019-01-21T18:56:13.242Z,101246.55
2019-01-21T19:01:20.121Z,101253.69
2019-01-21T19:06:26.095Z,101260.00
2019-01-21T19:11:33.002Z,101275.29
2019-01-21T19:16:39.257Z,101253.68
2019-01-21T19:21:45.631Z,101261.62
2019-01-21T19:26:51.616Z,101254.89
2019-01-21T19:31:59.604Z,101255.67
2019-01-21T19:37:05.608Z,101256.73
2019-01-21T19:42:12.172Z,101257.36
2019-01-21T19:47:19.336Z,101258.49
2019-01-21T19:52:26.176Z,101256.46
2019-01-21T19:57:32.056Z,101244.78
2019-01-21T20:02:38.164Z,101241.06
2019-01-21T20:07:44.360Z,101236.37
2019-01-21T20:12:50.525Z,101227.97
2019-01-21T20:17:58.833Z,101221.19
2019-01-21T20:23:05.596Z,101223.76
2019-01-21T20:28:11.860Z,101221.45
2019-01-21T20:33:19.590Z,101225.82
2019-01-21T20:38:25.315Z,101214.22
2019-01-21T20:43:33.506Z,101205.23
2019-01-21T20:48:42.220Z,101208.16
2019-01-21T20:53:49.634Z,101212.73
2019-01-21T20:58:55.305Z,101213.71
2019-01-21T21:04:01.627Z,101208.36
2019-01-21T21:09:09.309Z,101207.04
2019-01-21T21:14:15.273Z,101208.42
2019-01-21T21:19:21.655Z,101195.77
2019-01-21T21:24:31.444Z,101191.62
2019-01-21T21:29:38.604Z,101189.94
2019-01-21T21:34:45.662Z,101189.80
2019-01-21T21:39:54.396Z,101184.17
2019-01-21T21:45:05.670Z,101177.50
2019-01-21T21:50:26.356Z,101166.98
2019-01-21T21:55:32.812Z,101163.03
2019-01-21T22:00:39.382Z,101159.08
2019-01-21T22:05:45.938Z,101162.12
2019-01-21T22:10:53.448Z,101159.05
2019-01-21T22:16:02.968Z,101159.38
2019-01-21T22:21:11.193Z,101148.41
2019-01-21T22:26:17.991Z,101146.93
2019-01-21T22:31:24.801Z,101138.30
2019-01-21T22:36:32.032Z,101135.58
2019-01-21T22:41:39.541Z,101134.19
2019-01-21T22:46:45.603Z,101132.45
2019-01-21T22:51:53.156Z,101128.59
2019-01-21T22:56:59.521Z,101122.84
2019-01-21T23:02:07.284Z,101120.28
2019-01-21T23:07:14.735Z,101113.88
2019-01-21T23:12:22.547Z,101117.25
2019-01-21T23:17:30.367Z,101119.66
2019-01-21T23:22:37.953Z,101130.61
2019-01-21T23:27:44.236Z,101128.92
2019-01-21T23:32:50.841Z,101125.44
2019-01-21T23:37:58.091Z,101122.45
2019-01-21T23:43:06.002Z,101115.86
2019-01-21T23:48:13.017Z,101120.19
2019-01-21T23:53:20.042Z,101111.50
2019-01-21T23:58:26.791Z,101104.14
